createdAt,value
2022-09-06T00:02:13.779Z,4.10
2022-09-06T00:04:44.568Z,3.40
2022-09-06T00:07:15.455Z,3.30
2022-09-06T00:09:46.389Z,3.30
2022-09-06T00:12:17.629Z,3.10
2022-09-06T00:14:48.395Z,3.60
2022-09-06T00:17:20.232Z,3.60
2022-09-06T00:19:51.555Z,4.50
2022-09-06T00:22:22.514Z,3.70
2022-09-06T00:24:53.676Z,4.50
2022-09-06T00:27:24.332Z,3.60
2022-09-06T00:29:55.337Z,3.60
2022-09-06T00:32:26.096Z,3.30
2022-09-06T00:34:57.001Z,4.10
2022-09-06T00:37:28.376Z,3.80
2022-09-06T00:39:59.192Z,3.60
2022-09-06T00:42:30.172Z,3.30
2022-09-06T00:45:01.324Z,3.40
2022-09-06T00:47:32.366Z,3.90
2022-09-06T00:50:05.633Z,3.60
2022-09-06T00:52:39.085Z,3.30
2022-09-06T00:57:40.338Z,3.30
2022-09-06T01:00:12.422Z,3.10
2022-09-06T01:02:44.537Z,4.10
2022-09-06T01:05:15.871Z,3.80
2022-09-06T01:07:59.166Z,4.00
2022-09-06T01:10:45.055Z,3.60
2022-09-06T01:13:27.238Z,4.20
2022-09-06T01:16:11.428Z,3.40
2022-09-06T01:19:06.548Z,3.80
2022-09-06T01:21:48.824Z,3.90
2022-09-06T01:25:05.193Z,3.70
2022-09-06T01:28:18.016Z,3.60
2022-09-06T01:30:53.543Z,3.70
2022-09-06T01:33:33.643Z,3.70
2022-09-06T01:36:08.435Z,3.60
2022-09-06T01:38:39.995Z,3.70
2022-09-06T01:41:11.215Z,3.30
2022-09-06T01:43:46.018Z,4.30
2022-09-06T01:46:24.317Z,3.90
2022-09-06T01:49:09.705Z,4.40
2022-09-06T01:51:57.447Z,3.90
2022-09-06T01:54:42.651Z,4.10
2022-09-06T01:57:30.569Z,3.90
2022-09-06T02:00:09.910Z,4.10
2022-09-06T02:02:49.884Z,4.50
2022-09-06T02:05:26.846Z,3.40
2022-09-06T02:08:03.122Z,3.80
2022-09-06T02:10:39.112Z,3.30
2022-09-06T02:13:12.404Z,4.00
2022-09-06T02:15:47.365Z,4.00
2022-09-06T02:18:22.007Z,4.00
2022-09-06T02:20:56.351Z,4.00
2022-09-06T02:23:31.466Z,3.80
2022-09-06T02:26:06.204Z,3.80
2022-09-06T02:28:37.125Z,3.70
2022-09-06T02:31:13.197Z,4.00
2022-09-06T02:33:46.558Z,3.80
2022-09-06T02:36:18.115Z,4.50
2022-09-06T02:38:49.961Z,4.50
2022-09-06T02:41:24.265Z,4.00
2022-09-06T02:43:54.934Z,3.80
2022-09-06T02:46:26.123Z,3.90
2022-09-06T02:48:57.580Z,4.40
2022-09-06T02:51:28.449Z,3.90
2022-09-06T02:53:59.645Z,4.20
2022-09-06T02:56:30.914Z,3.20
2022-09-06T02:59:02.080Z,4.90
2022-09-06T03:01:33.241Z,3.60
2022-09-06T03:04:04.524Z,3.70
2022-09-06T03:06:35.647Z,4.60
2022-09-06T03:09:06.464Z,3.80
2022-09-06T03:11:37.373Z,3.70
2022-09-06T03:14:08.304Z,4.10
2022-09-06T03:16:39.697Z,3.80
2022-09-06T03:19:10.486Z,4.20
2022-09-06T03:21:41.465Z,3.80
2022-09-06T03:24:12.109Z,4.60
2022-09-06T03:26:42.801Z,3.70
2022-09-06T03:29:13.855Z,4.60
2022-09-06T03:31:44.485Z,5.40
2022-09-06T03:34:15.234Z,4.50
2022-09-06T03:36:46.263Z,3.90
2022-09-06T03:39:16.967Z,3.90
2022-09-06T03:41:47.613Z,3.90
2022-09-06T03:44:18.360Z,7.10
2022-09-06T03:46:49.225Z,3.90
2022-09-06T03:49:20.082Z,6.10
2022-09-06T03:51:51.141Z,3.80
2022-09-06T03:54:24.773Z,4.30
2022-09-06T03:56:55.917Z,4.90
2022-09-06T03:59:26.595Z,3.90
2022-09-06T04:01:57.380Z,4.50
2022-09-06T04:04:28.125Z,4.10
2022-09-06T04:06:58.828Z,3.80
2022-09-06T04:09:29.647Z,3.60
2022-09-06T04:12:00.327Z,5.20
2022-09-06T04:14:31.209Z,7.80
2022-09-06T04:17:02.213Z,11.80
2022-09-06T04:19:33.008Z,6.00
2022-09-06T04:22:03.635Z,5.20
2022-09-06T04:24:34.277Z,4.70
2022-09-06T04:27:05.312Z,4.90
2022-09-06T04:29:36.172Z,5.10
2022-09-06T04:32:07.675Z,4.30
2022-09-06T04:34:38.413Z,3.80
2022-09-06T04:37:09.283Z,4.00
2022-09-06T04:39:39.947Z,3.90
2022-09-06T04:42:11.327Z,5.10
2022-09-06T04:44:42.779Z,3.70
2022-09-06T04:47:17.480Z,4.40
2022-09-06T04:49:49.513Z,4.30
2022-09-06T04:52:20.523Z,4.20
2022-09-06T04:54:51.177Z,4.40
2022-09-06T04:57:22.118Z,3.80
2022-09-06T04:59:53.004Z,4.10
2022-09-06T05:02:23.760Z,5.10
2022-09-06T05:04:54.887Z,5.90
2022-09-06T05:07:25.778Z,5.00
2022-09-06T05:09:56.789Z,4.20
2022-09-06T05:12:27.553Z,4.10
2022-09-06T05:14:58.242Z,4.40
2022-09-06T05:17:28.917Z,4.40
2022-09-06T05:19:59.563Z,3.80
2022-09-06T05:22:30.280Z,4.10
2022-09-06T05:25:00.958Z,3.90
2022-09-06T05:27:31.923Z,4.20
2022-09-06T05:30:03.481Z,4.30
2022-09-06T05:32:34.202Z,3.60
2022-09-06T05:35:05.599Z,4.10
2022-09-06T05:37:36.294Z,4.20
2022-09-06T05:40:08.427Z,4.20
2022-09-06T05:42:41.089Z,3.70
2022-09-06T05:45:12.906Z,4.00
2022-09-06T05:47:43.683Z,3.70
2022-09-06T05:50:15.220Z,4.00
2022-09-06T05:52:46.087Z,4.00
2022-09-06T05:55:16.892Z,4.00
2022-09-06T05:57:47.624Z,3.90
2022-09-06T06:00:19.113Z,3.70
2022-09-06T06:02:52.358Z,5.40
2022-09-06T06:05:23.118Z,3.80
2022-09-06T06:07:55.607Z,3.90
2022-09-06T06:10:26.477Z,4.10
2022-09-06T06:12:59.812Z,4.50
2022-09-06T06:15:32.463Z,3.90
2022-09-06T06:18:03.248Z,3.60
2022-09-06T06:20:34.019Z,3.20
2022-09-06T06:23:04.866Z,3.80
2022-09-06T06:25:35.684Z,3.90
2022-09-06T06:28:06.452Z,4.40
2022-09-06T06:30:37.169Z,4.00
2022-09-06T06:33:08.007Z,4.70
2022-09-06T06:35:40.188Z,3.30
2022-09-06T06:38:11.021Z,3.60
2022-09-06T06:40:46.357Z,4.90
2022-09-06T06:43:17.197Z,4.70
2022-09-06T06:45:51.462Z,4.10
2022-09-06T06:48:22.505Z,3.70
2022-09-06T06:50:53.411Z,4.30
2022-09-06T06:53:24.243Z,3.80
2022-09-06T06:55:55.190Z,4.00
2022-09-06T06:58:26.213Z,3.40
2022-09-06T07:00:57.589Z,4.20
2022-09-06T07:03:28.582Z,4.30
2022-09-06T07:06:14.622Z,4.10
2022-09-06T07:08:46.013Z,4.40
2022-09-06T07:11:21.598Z,4.30
2022-09-06T07:13:55.245Z,3.80
2022-09-06T07:16:28.448Z,4.20
2022-09-06T07:18:59.414Z,3.90
2022-09-06T07:21:38.196Z,4.00
2022-09-06T07:24:10.117Z,4.00
2022-09-06T07:26:41.873Z,4.20
2022-09-06T07:29:13.522Z,3.80
2022-09-06T07:34:37.846Z,4.00
2022-09-06T07:39:39.181Z,4.40
2022-09-06T07:42:10.723Z,4.10
2022-09-06T07:44:41.674Z,3.80
2022-09-06T07:53:13.816Z,3.70
2022-09-06T07:55:45.544Z,3.70
2022-09-06T07:58:16.316Z,3.50
2022-09-06T08:00:47.147Z,3.40
2022-09-06T08:03:18.099Z,3.80
2022-09-06T08:11:31.340Z,4.00
2022-09-06T08:14:04.086Z,3.70
2022-09-06T08:16:36.888Z,4.00
2022-09-06T08:19:10.931Z,3.70
2022-09-06T08:21:41.643Z,3.70
2022-09-06T08:24:12.612Z,3.40
2022-09-06T08:26:43.684Z,3.90
2022-09-06T08:29:15.293Z,3.70
2022-09-06T08:31:46.900Z,3.80
2022-09-06T08:34:18.163Z,4.30
2022-09-06T08:36:49.067Z,3.60
2022-09-06T08:39:19.990Z,4.40
2022-09-06T08:41:55.909Z,3.80
2022-09-06T08:47:22.408Z,3.70
2022-09-06T08:49:55.901Z,3.70
2022-09-06T08:52:49.676Z,4.10
2022-09-06T08:55:38.690Z,4.20
2022-09-06T08:58:26.792Z,3.70
2022-09-06T09:01:03.334Z,3.60
2022-09-06T09:03:38.098Z,3.50
2022-09-06T09:06:11.239Z,3.30
2022-09-06T09:08:48.349Z,3.90
2022-09-06T09:11:22.008Z,4.50
2022-09-06T09:14:00.351Z,3.70
2022-09-06T09:16:31.474Z,3.70
2022-09-06T09:19:04.724Z,3.80
2022-09-06T09:21:38.241Z,3.90
2022-09-06T09:24:11.735Z,3.80
2022-09-06T09:26:50.685Z,3.50
2022-09-06T09:29:26.770Z,3.50
2022-09-06T09:31:59.158Z,3.40
2022-09-06T09:34:35.256Z,3.90
2022-09-06T09:40:16.882Z,4.40
2022-09-06T09:42:47.589Z,3.60
2022-09-06T09:45:30.555Z,3.70
2022-09-06T09:48:20.615Z,3.70
2022-09-06T09:50:51.923Z,3.20
2022-09-06T09:53:24.742Z,3.70
2022-09-06T09:55:59.904Z,3.00
2022-09-06T09:58:37.343Z,3.60
2022-09-06T10:01:24.200Z,3.90
2022-09-06T10:09:42.833Z,3.60
2022-09-06T10:12:19.398Z,3.50
2022-09-06T10:14:51.075Z,3.60
2022-09-06T10:17:32.845Z,3.70
2022-09-06T10:20:08.041Z,3.90
2022-09-06T10:22:49.811Z,3.40
2022-09-06T10:25:48.974Z,3.50
2022-09-06T10:28:36.613Z,3.40
2022-09-06T10:31:45.512Z,3.10
2022-09-06T10:34:41.882Z,3.30
2022-09-06T10:37:25.599Z,3.60
2022-09-06T10:40:04.374Z,3.20
2022-09-06T10:42:42.341Z,3.30
2022-09-06T10:45:43.865Z,3.40
2022-09-06T10:48:20.846Z,3.20
2022-09-06T10:50:57.362Z,3.50
2022-09-06T10:53:42.262Z,3.20
2022-09-06T10:56:16.972Z,3.40
2022-09-06T11:01:57.501Z,3.90
2022-09-06T11:04:33.826Z,3.20
2022-09-06T11:07:11.886Z,3.20
2022-09-06T11:09:46.861Z,3.80
2022-09-06T11:12:23.711Z,3.00
2022-09-06T11:14:55.610Z,3.50
2022-09-06T11:17:36.098Z,3.90
2022-09-06T11:20:15.340Z,4.40
2022-09-06T11:22:57.738Z,3.40
2022-09-06T11:25:59.428Z,3.30
2022-09-06T11:28:37.917Z,3.90
2022-09-06T11:34:08.712Z,4.10
2022-09-06T11:36:46.800Z,3.20
2022-09-06T11:42:42.764Z,3.20
2022-09-06T11:45:23.049Z,3.30
2022-09-06T11:47:54.747Z,2.90
2022-09-06T11:51:02.659Z,3.20
2022-09-06T11:53:36.031Z,3.30
2022-09-06T11:58:54.871Z,3.30
2022-09-06T12:01:42.108Z,2.90
2022-09-06T12:04:13.124Z,3.30
2022-09-06T12:07:05.401Z,3.00
2022-09-06T12:09:37.833Z,3.50
2022-09-06T12:12:13.474Z,3.10
2022-09-06T12:14:49.372Z,3.20
2022-09-06T12:17:25.429Z,3.30
2022-09-06T12:20:04.990Z,3.50
2022-09-06T12:23:04.711Z,3.50
2022-09-06T12:25:59.976Z,3.30
2022-09-06T12:28:36.372Z,3.20
2022-09-06T12:31:34.147Z,3.30
2022-09-06T12:34:12.524Z,3.40
2022-09-06T12:36:56.608Z,4.40
2022-09-06T12:39:27.988Z,3.20
2022-09-06T12:42:02.133Z,3.80
2022-09-06T12:44:36.280Z,3.30
2022-09-06T12:47:12.836Z,3.40
2022-09-06T12:49:43.727Z,3.90
2022-09-06T12:52:16.754Z,3.50
2022-09-06T12:54:50.326Z,3.30
2022-09-06T12:57:25.409Z,3.70
2022-09-06T12:59:57.709Z,3.20
2022-09-06T13:02:35.885Z,3.60
2022-09-06T13:05:09.416Z,3.80
2022-09-06T13:07:45.257Z,3.40
2022-09-06T13:10:20.517Z,4.10
2022-09-06T13:12:53.156Z,3.70
2022-09-06T13:15:27.569Z,3.30
2022-09-06T13:18:22.695Z,3.10
2022-09-06T13:21:05.196Z,4.00
2022-09-06T13:23:45.855Z,3.50
2022-09-06T13:26:17.149Z,3.50
2022-09-06T13:28:48.074Z,3.20
2022-09-06T13:31:23.567Z,4.00
2022-09-06T13:34:00.601Z,3.60
2022-09-06T13:36:33.818Z,3.70
2022-09-06T13:39:04.875Z,3.80
2022-09-06T13:41:44.988Z,3.60
2022-09-06T13:44:30.250Z,4.40
2022-09-06T13:47:01.333Z,3.20
2022-09-06T13:49:32.605Z,4.50
2022-09-06T13:52:04.925Z,3.50
2022-09-06T13:54:35.846Z,3.20
2022-09-06T13:57:07.008Z,3.60
2022-09-06T13:59:37.758Z,4.30
2022-09-06T14:02:10.853Z,4.00
2022-09-06T14:04:41.712Z,3.50
2022-09-06T14:07:12.659Z,3.70
2022-09-06T14:09:43.661Z,4.20
2022-09-06T14:12:14.404Z,3.50
2022-09-06T14:14:45.987Z,4.00
2022-09-06T14:17:16.891Z,4.00
2022-09-06T14:19:48.152Z,3.70
2022-09-06T14:22:19.226Z,4.30
2022-09-06T14:24:50.217Z,3.50
2022-09-06T14:27:21.109Z,3.60
2022-09-06T14:29:52.061Z,3.50
2022-09-06T14:32:23.023Z,4.10
2022-09-06T14:34:54.428Z,3.60
2022-09-06T14:37:25.292Z,3.60
2022-09-06T14:39:56.365Z,3.80
2022-09-06T14:42:28.583Z,3.80
2022-09-06T14:44:59.532Z,3.40
2022-09-06T14:47:30.570Z,4.40
2022-09-06T14:50:02.348Z,3.90
2022-09-06T14:52:33.145Z,4.80
2022-09-06T14:55:04.337Z,7.50
2022-09-06T14:57:35.538Z,4.50
2022-09-06T15:00:09.228Z,6.40
2022-09-06T15:02:40.471Z,3.80
2022-09-06T15:05:11.807Z,4.10
2022-09-06T15:07:43.193Z,4.80
2022-09-06T15:10:14.371Z,4.40
2022-09-06T15:12:45.311Z,4.40
2022-09-06T15:15:16.872Z,4.70
2022-09-06T15:17:48.218Z,5.20
2022-09-06T15:20:19.107Z,3.80
2022-09-06T15:22:56.314Z,4.30
2022-09-06T15:25:46.316Z,5.00
2022-09-06T15:28:18.093Z,9.60
2022-09-06T15:30:49.966Z,6.50
2022-09-06T15:33:21.679Z,6.70
2022-09-06T15:35:56.418Z,4.70
2022-09-06T15:38:28.011Z,5.30
2022-09-06T15:41:08.518Z,4.90
2022-09-06T15:43:42.253Z,6.40
2022-09-06T15:46:13.259Z,5.10
2022-09-06T15:48:45.811Z,5.70
2022-09-06T15:51:18.827Z,4.50
2022-09-06T15:53:50.139Z,5.00
2022-09-06T15:56:21.501Z,6.60
2022-09-06T15:58:52.536Z,5.90
2022-09-06T16:01:25.428Z,5.60
2022-09-06T16:04:03.443Z,4.20
2022-09-06T16:06:37.206Z,5.60
2022-09-06T16:09:10.443Z,5.20
2022-09-06T16:11:41.685Z,5.50
2022-09-06T16:14:14.237Z,42.60
2022-09-06T16:16:45.791Z,81.80
2022-09-06T16:19:17.373Z,124.60
2022-09-06T16:21:48.215Z,154.00
2022-09-06T16:24:21.670Z,174.60
2022-09-06T16:26:52.539Z,196.70
2022-09-06T16:29:23.458Z,211.00
2022-09-06T16:31:59.723Z,200.80
2022-09-06T16:34:30.929Z,214.80
2022-09-06T16:37:07.827Z,278.40
2022-09-06T16:39:39.590Z,255.30
2022-09-06T16:42:11.314Z,246.50
2022-09-06T16:44:42.312Z,231.40
2022-09-06T16:47:16.427Z,223.20
2022-09-06T16:49:47.721Z,220.40
2022-09-06T16:52:18.619Z,207.40
2022-09-06T16:54:50.068Z,188.20
2022-09-06T16:57:22.287Z,184.10
2022-09-06T16:59:53.334Z,180.30
2022-09-06T17:02:24.475Z,172.10
2022-09-06T17:04:55.936Z,160.50
2022-09-06T17:07:26.989Z,154.10
2022-09-06T17:09:57.872Z,157.40
2022-09-06T17:12:29.458Z,142.70
2022-09-06T17:15:00.426Z,144.70
2022-09-06T17:17:31.487Z,139.70
2022-09-06T17:20:03.808Z,134.10
2022-09-06T17:22:36.552Z,124.70
2022-09-06T17:25:08.572Z,120.30
2022-09-06T17:27:39.526Z,112.20
2022-09-06T17:30:12.656Z,100.60
2022-09-06T17:32:43.508Z,104.80
2022-09-06T17:35:14.481Z,99.70
2022-09-06T17:37:45.398Z,92.10
2022-09-06T17:40:16.584Z,83.70
2022-09-06T17:42:47.750Z,85.50
2022-09-06T17:45:18.817Z,77.20
2022-09-06T17:47:49.657Z,70.00
2022-09-06T17:50:21.893Z,70.80
2022-09-06T17:52:54.866Z,71.60
2022-09-06T17:55:27.010Z,60.60
2022-09-06T17:57:58.522Z,64.30
2022-09-06T18:00:29.403Z,58.40
2022-09-06T18:03:00.406Z,58.40
2022-09-06T18:05:31.279Z,52.90
2022-09-06T18:08:02.315Z,51.70
2022-09-06T18:10:37.758Z,49.20
2022-09-06T18:13:09.010Z,49.60
2022-09-06T18:15:42.908Z,47.10
2022-09-06T18:18:13.958Z,41.10
2022-09-06T18:20:45.624Z,40.40
2022-09-06T18:23:16.756Z,41.20
2022-09-06T18:25:56.326Z,10.70
2022-09-06T18:28:29.157Z,7.60
2022-09-06T18:31:05.095Z,7.40
2022-09-06T18:33:36.541Z,8.10
2022-09-06T18:36:10.009Z,6.90
2022-09-06T18:38:42.866Z,6.30
2022-09-06T18:41:29.938Z,7.60
2022-09-06T18:44:02.955Z,6.60
2022-09-06T18:46:36.198Z,7.10
2022-09-06T18:49:07.451Z,6.80
2022-09-06T18:51:42.000Z,8.40
2022-09-06T18:54:13.408Z,6.00
2022-09-06T18:56:45.838Z,6.90
2022-09-06T18:59:17.191Z,6.40
2022-09-06T19:01:48.195Z,7.20
2022-09-06T19:04:19.265Z,6.90
2022-09-06T19:06:50.400Z,6.40
2022-09-06T19:09:21.513Z,6.90
2022-09-06T19:11:53.245Z,8.30
2022-09-06T19:14:27.652Z,6.40
2022-09-06T19:16:58.506Z,6.10
2022-09-06T19:19:29.567Z,5.80
2022-09-06T19:22:00.636Z,6.20
2022-09-06T19:24:32.279Z,5.70
2022-09-06T19:27:03.135Z,5.30
2022-09-06T19:29:33.962Z,5.10
2022-09-06T19:32:06.394Z,6.30
2022-09-06T19:34:37.315Z,5.50
2022-09-06T19:37:08.243Z,5.30
2022-09-06T19:39:39.150Z,5.00
2022-09-06T19:42:10.260Z,5.50
2022-09-06T19:44:41.298Z,5.40
2022-09-06T19:47:12.491Z,4.60
2022-09-06T19:49:43.364Z,5.40
2022-09-06T19:52:14.722Z,6.20
2022-09-06T19:54:45.658Z,4.60
2022-09-06T19:57:16.369Z,4.90
2022-09-06T19:59:47.490Z,5.60
2022-09-06T20:02:18.729Z,5.30
2022-09-06T20:04:49.555Z,4.70
2022-09-06T20:07:20.371Z,4.30
2022-09-06T20:09:52.609Z,5.00
2022-09-06T20:12:24.356Z,4.60
2022-09-06T20:14:55.111Z,4.40
2022-09-06T20:17:34.366Z,4.50
2022-09-06T20:20:06.866Z,4.40
2022-09-06T20:22:37.533Z,4.30
2022-09-06T20:25:11.938Z,4.60
2022-09-06T20:27:44.668Z,6.30
2022-09-06T20:30:17.005Z,4.80
2022-09-06T20:32:47.912Z,4.50
2022-09-06T20:35:19.529Z,4.90
2022-09-06T20:37:50.846Z,5.50
2022-09-06T20:40:21.607Z,4.90
2022-09-06T20:42:53.173Z,4.70
2022-09-06T20:45:25.591Z,4.60
2022-09-06T20:47:57.734Z,4.80
2022-09-06T20:50:29.012Z,6.20
2022-09-06T20:52:59.932Z,5.10
2022-09-06T20:55:31.416Z,4.40
2022-09-06T20:58:02.307Z,5.70
2022-09-06T21:00:33.568Z,4.80
2022-09-06T21:03:04.293Z,4.10
2022-09-06T21:05:35.004Z,4.20
2022-09-06T21:08:05.941Z,4.10
2022-09-06T21:10:36.686Z,4.60
2022-09-06T21:13:07.426Z,5.20
2022-09-06T21:15:41.090Z,4.00
2022-09-06T21:18:13.029Z,3.90
2022-09-06T21:20:43.736Z,4.00
2022-09-06T21:23:14.416Z,4.80
2022-09-06T21:25:52.687Z,4.60
2022-09-06T21:28:23.742Z,5.30
2022-09-06T21:31:04.921Z,5.70
2022-09-06T21:33:36.683Z,3.70
2022-09-06T21:36:10.175Z,3.60
2022-09-06T21:38:42.534Z,6.60
2022-09-06T21:41:14.581Z,4.60
2022-09-06T21:43:46.062Z,3.70
2022-09-06T21:46:19.330Z,4.50
2022-09-06T21:51:23.718Z,3.40
2022-09-06T21:53:55.857Z,3.80
2022-09-06T21:56:27.424Z,3.80
2022-09-06T21:58:59.426Z,4.10
2022-09-06T22:01:32.116Z,6.20
2022-09-06T22:04:04.136Z,4.20
2022-09-06T22:06:36.698Z,4.30
2022-09-06T22:09:10.902Z,5.80
2022-09-06T22:11:44.622Z,4.20
2022-09-06T22:14:16.837Z,4.60
2022-09-06T22:16:47.572Z,3.70
2022-09-06T22:19:18.232Z,4.20
2022-09-06T22:21:49.134Z,5.90
2022-09-06T22:24:19.843Z,3.70
2022-09-06T22:26:50.589Z,3.90
2022-09-06T22:29:21.241Z,4.10
2022-09-06T22:31:52.531Z,3.90
2022-09-06T22:34:23.394Z,4.50
2022-09-06T22:36:54.060Z,4.10
2022-09-06T22:39:24.799Z,4.50
2022-09-06T22:41:55.706Z,4.70
2022-09-06T22:44:26.507Z,4.00
2022-09-06T22:46:57.741Z,4.00
2022-09-06T22:49:28.427Z,4.10
2022-09-06T22:51:59.197Z,3.60
2022-09-06T22:54:29.931Z,4.00
2022-09-06T22:57:00.594Z,4.00
2022-09-06T22:59:31.238Z,4.60
2022-09-06T23:02:01.985Z,4.30
2022-09-06T23:04:33.345Z,4.10
2022-09-06T23:07:04.157Z,3.90
2022-09-06T23:09:34.838Z,4.90
2022-09-06T23:12:06.156Z,3.60
2022-09-06T23:14:36.784Z,4.20
2022-09-06T23:17:07.773Z,4.50
2022-09-06T23:19:39.095Z,3.80
2022-09-06T23:22:11.731Z,4.20
2022-09-06T23:24:42.825Z,4.00
2022-09-06T23:27:13.671Z,4.60
2022-09-06T23:29:46.060Z,3.80
2022-09-06T23:32:16.943Z,3.80
2022-09-06T23:34:47.964Z,3.40
2022-09-06T23:37:19.212Z,4.90
2022-09-06T23:39:50.344Z,3.70
2022-09-06T23:42:22.024Z,4.70
2022-09-06T23:44:57.288Z,5.30
2022-09-06T23:47:28.402Z,4.60
2022-09-06T23:49:59.065Z,4.20
2022-09-06T23:52:30.137Z,3.70
2022-09-06T23:55:00.806Z,4.30
2022-09-06T23:57:31.818Z,3.90
